CheckWX is a tool to help pilots better visualize weather data.  It is not intended as a substitute for an official pre-flight weather briefing.

12:53:57 UTC

KOXB METAR
Ocean City Municipal Airport
Ocean City, Maryland, USA
Current

1 hour ago

KOXB 171153Z AUTO 21005KT 10SM CLR 26/21 A2998 RMK AO2 SLP150 T02560211 10267 20228 51019
Observed
Jun-17 @ 11:53 UTC
Wind
  • 210° at 5 KTS
Visibility
10 SM
Flight Rules
VFR
Cloud Levels
  • Clear skies
Temperature
26°C / 79°F
Dewpoint
21°C / 70°F
Humidity
74%
Altimeter
29.98" Hg
Pressure
1015.22 hPa
Previous

2 hours ago

KOXB 171053Z AUTO 00000KT 10SM CLR 24/21 A2996 RMK AO2 SLP146 T02440206
Observed
Jun-17 @ 10:53 UTC
Visibility
10 SM
Flight Rules
VFR
Cloud Levels
  • Clear skies
Temperature
24°C / 75°F
Dewpoint
21°C / 70°F
Humidity
83%
Altimeter
29.96" Hg
Pressure
1014.52 hPa
Previous

3 hours ago

KOXB 170953Z AUTO 28004KT 10SM CLR 24/20 A2994 RMK AO2 SLP137 T02390200
Observed
Jun-17 @ 09:53 UTC
Wind
  • 280° at 4 KTS
Visibility
10 SM
Flight Rules
VFR
Cloud Levels
  • Clear skies
Temperature
24°C / 75°F
Dewpoint
20°C / 68°F
Humidity
78%
Altimeter
29.94" Hg
Pressure
1013.92 hPa